SACO

Ingeniero Ambrosio Taravella Airport

Cordoba, Argentina
TAF SACO 210500Z 2106/2206 02010KT 9999 NSC TX15/2118Z TNM04/2110Z BECMG 2109/2112 36005KT CAVOK BECMG 2115/2118 02015KT 9999 SCT030
Issued Valid From Valid To
Aug-21 @ 05:00 UTC
(13 hours ago)
Aug-21 @ 06:00 UTC
(12 hours ago)
Aug-22 @ 06:00 UTC
(in 12 hours)
Expired Click to View Aug-21 @ 06:00 to Aug-21 @ 09:00
TAF SACO 210500Z 2106/2206 02010KT 9999 NSC TX15/2118Z TNM04/2110Z
Wind Visibility Clouds
20° at 10 knots 10,000+ meters
  • No significant clouds
Expired Click to View Aug-21 @ 09:00 to Aug-21 @ 15:00
BECMG 2109/2112 36005KT CAVOK
Wind Visibility Clouds Conditions
360° at 5 knots 10,000+ meters
  • No significant clouds
Becoming Aug-21 @ 15:00 to Aug-22 @ 06:00
BECMG 2115/2118 02015KT 9999 SCT030
Wind Visibility Clouds Conditions
20° at 15 knots 10,000+ meters
  • Scattered at 3,000' AGL
TAF SACO 210500Z 2106/2206 02010KT 9999 NSC TX15/2118Z TNM04/2110Z BECMG 2109/2112 36005KT CAVOK BECMG 2115/2118 02015KT 9999 SCT030
Issued Aug-21 @ 05:00 UTC
(13 hours ago)
Valid From Aug-21 @ 06:00 UTC
(12 hours ago)
Valid To Aug-22 @ 06:00 UTC
(in 12 hours)
Aug-21 @ 06:00 - Aug-21 @ 09:00
Wind Visibility
20° at 10 knots 10,000+ meters
Clouds
  • No significant clouds
Aug-21 @ 09:00 - Aug-21 @ 15:00
Wind Visibility
360° at 5 knots 10,000+ meters
Clouds
  • No significant clouds
Conditions
Becoming Aug-21 @ 15:00 - Aug-22 @ 06:00
Wind Visibility
20° at 15 knots 10,000+ meters
Clouds
  • Scattered at 3,000' AGL
Conditions